sensor_id;sensor_type;location;lat;lon;timestamp;P1;durP1;ratioP1;P2;durP2;ratioP2
23702;SDS011;12030;50.376;8.762;2023-06-19T00:02:14;7.90;;;7.20;;
23702;SDS011;12030;50.376;8.762;2023-06-19T00:04:41;8.57;;;7.78;;
23702;SDS011;12030;50.376;8.762;2023-06-19T00:07:06;8.23;;;7.43;;
23702;SDS011;12030;50.376;8.762;2023-06-19T00:09:32;8.13;;;7.43;;
23702;SDS011;12030;50.376;8.762;2023-06-19T00:11:58;9.10;;;7.90;;
23702;SDS011;12030;50.376;8.762;2023-06-19T00:14:24;8.50;;;7.70;;
23702;SDS011;12030;50.376;8.762;2023-06-19T00:16:50;8.40;;;7.50;;
23702;SDS011;12030;50.376;8.762;2023-06-19T00:19:17;8.93;;;7.93;;
23702;SDS011;12030;50.376;8.762;2023-06-19T00:21:42;8.17;;;7.37;;
23702;SDS011;12030;50.376;8.762;2023-06-19T00:24:09;8.10;;;7.30;;
23702;SDS011;12030;50.376;8.762;2023-06-19T00:26:35;8.60;;;7.70;;
23702;SDS011;12030;50.376;8.762;2023-06-19T00:29:00;8.60;;;7.43;;
23702;SDS011;12030;50.376;8.762;2023-06-19T00:31:26;8.33;;;7.53;;
23702;SDS011;12030;50.376;8.762;2023-06-19T00:33:52;8.30;;;7.43;;
23702;SDS011;12030;50.376;8.762;2023-06-19T00:36:18;8.38;;;7.57;;
23702;SDS011;12030;50.376;8.762;2023-06-19T00:38:48;7.97;;;7.28;;
23702;SDS011;12030;50.376;8.762;2023-06-19T00:41:14;8.10;;;7.40;;
23702;SDS011;12030;50.376;8.762;2023-06-19T00:43:41;8.70;;;7.07;;
23702;SDS011;12030;50.376;8.762;2023-06-19T00:46:07;7.87;;;7.17;;
23702;SDS011;12030;50.376;8.762;2023-06-19T00:48:33;8.95;;;7.78;;
23702;SDS011;12030;50.376;8.762;2023-06-19T00:51:00;10.45;;;7.80;;
23702;SDS011;12030;50.376;8.762;2023-06-19T00:53:25;9.38;;;7.95;;
23702;SDS011;12030;50.376;8.762;2023-06-19T00:55:53;9.00;;;8.00;;
23702;SDS011;12030;50.376;8.762;2023-06-19T00:58:20;8.68;;;7.85;;
23702;SDS011;12030;50.376;8.762;2023-06-19T01:00:47;8.70;;;7.80;;
23702;SDS011;12030;50.376;8.762;2023-06-19T01:03:13;9.83;;;8.13;;
23702;SDS011;12030;50.376;8.762;2023-06-19T01:05:38;11.68;;;8.00;;
23702;SDS011;12030;50.376;8.762;2023-06-19T01:08:10;9.55;;;8.55;;
23702;SDS011;12030;50.376;8.762;2023-06-19T01:10:42;10.93;;;7.95;;
23702;SDS011;12030;50.376;8.762;2023-06-19T01:13:31;11.80;;;8.20;;
23702;SDS011;12030;50.376;8.762;2023-06-19T01:15:59;12.13;;;8.53;;
23702;SDS011;12030;50.376;8.762;2023-06-19T01:18:27;9.97;;;8.73;;
23702;SDS011;12030;50.376;8.762;2023-06-19T01:20:54;10.15;;;8.95;;
23702;SDS011;12030;50.376;8.762;2023-06-19T01:23:20;9.60;;;8.37;;
23702;SDS011;12030;50.376;8.762;2023-06-19T01:25:45;12.77;;;8.77;;
23702;SDS011;12030;50.376;8.762;2023-06-19T01:28:11;12.83;;;8.20;;
23702;SDS011;12030;50.376;8.762;2023-06-19T01:30:39;13.90;;;8.52;;
23702;SDS011;12030;50.376;8.762;2023-06-19T01:33:09;9.88;;;8.50;;
23702;SDS011;12030;50.376;8.762;2023-06-19T01:35:43;11.70;;;9.40;;
23702;SDS011;12030;50.376;8.762;2023-06-19T01:38:11;12.88;;;9.38;;
23702;SDS011;12030;50.376;8.762;2023-06-19T01:40:38;12.00;;;9.68;;
23702;SDS011;12030;50.376;8.762;2023-06-19T01:43:05;10.27;;;9.25;;
23702;SDS011;12030;50.376;8.762;2023-06-19T01:45:33;10.30;;;9.20;;
23702;SDS011;12030;50.376;8.762;2023-06-19T01:47:58;12.10;;;9.32;;
23702;SDS011;12030;50.376;8.762;2023-06-19T01:50:24;12.27;;;9.03;;
23702;SDS011;12030;50.376;8.762;2023-06-19T01:52:50;14.55;;;9.43;;
23702;SDS011;12030;50.376;8.762;2023-06-19T01:55:16;10.97;;;9.20;;
23702;SDS011;12030;50.376;8.762;2023-06-19T01:57:42;14.77;;;9.30;;
23702;SDS011;12030;50.376;8.762;2023-06-19T02:00:07;13.13;;;9.50;;
23702;SDS011;12030;50.376;8.762;2023-06-19T02:02:35;11.07;;;8.98;;
23702;SDS011;12030;50.376;8.762;2023-06-19T02:05:03;9.90;;;8.95;;
23702;SDS011;12030;50.376;8.762;2023-06-19T02:07:29;11.07;;;8.30;;
23702;SDS011;12030;50.376;8.762;2023-06-19T02:09:55;8.18;;;7.38;;
23702;SDS011;12030;50.376;8.762;2023-06-19T02:12:21;8.38;;;7.65;;
23702;SDS011;12030;50.376;8.762;2023-06-19T02:14:47;8.25;;;7.55;;
23702;SDS011;12030;50.376;8.762;2023-06-19T02:17:13;8.20;;;7.50;;
23702;SDS011;12030;50.376;8.762;2023-06-19T02:19:38;9.80;;;7.80;;
23702;SDS011;12030;50.376;8.762;2023-06-19T02:22:04;10.93;;;7.90;;
23702;SDS011;12030;50.376;8.762;2023-06-19T02:24:31;12.38;;;7.70;;
23702;SDS011;12030;50.376;8.762;2023-06-19T02:26:57;12.83;;;8.53;;
23702;SDS011;12030;50.376;8.762;2023-06-19T02:29:23;12.43;;;8.57;;
23702;SDS011;12030;50.376;8.762;2023-06-19T02:31:48;9.07;;;7.83;;
23702;SDS011;12030;50.376;8.762;2023-06-19T02:34:14;9.10;;;8.00;;
23702;SDS011;12030;50.376;8.762;2023-06-19T02:36:40;12.80;;;8.07;;
23702;SDS011;12030;50.376;8.762;2023-06-19T02:39:05;11.23;;;8.10;;
23702;SDS011;12030;50.376;8.762;2023-06-19T02:41:31;10.60;;;7.53;;
23702;SDS011;12030;50.376;8.762;2023-06-19T02:43:57;10.20;;;7.68;;
23702;SDS011;12030;50.376;8.762;2023-06-19T02:46:22;11.23;;;8.20;;
23702;SDS011;12030;50.376;8.762;2023-06-19T02:48:48;10.07;;;8.33;;
23702;SDS011;12030;50.376;8.762;2023-06-19T02:51:13;10.30;;;8.00;;
23702;SDS011;12030;50.376;8.762;2023-06-19T02:53:39;10.97;;;7.70;;
23702;SDS011;12030;50.376;8.762;2023-06-19T02:56:06;9.20;;;7.97;;
23702;SDS011;12030;50.376;8.762;2023-06-19T02:58:32;10.60;;;8.13;;
23702;SDS011;12030;50.376;8.762;2023-06-19T03:00:59;11.15;;;7.90;;
23702;SDS011;12030;50.376;8.762;2023-06-19T03:03:25;9.37;;;7.63;;
23702;SDS011;12030;50.376;8.762;2023-06-19T03:05:50;8.83;;;7.53;;
23702;SDS011;12030;50.376;8.762;2023-06-19T03:08:16;9.25;;;7.80;;
23702;SDS011;12030;50.376;8.762;2023-06-19T03:10:41;8.93;;;7.57;;
23702;SDS011;12030;50.376;8.762;2023-06-19T03:13:07;8.52;;;7.07;;
23702;SDS011;12030;50.376;8.762;2023-06-19T03:15:32;8.93;;;7.20;;
23702;SDS011;12030;50.376;8.762;2023-06-19T03:17:58;8.70;;;7.53;;
23702;SDS011;12030;50.376;8.762;2023-06-19T03:20:24;8.90;;;7.70;;
23702;SDS011;12030;50.376;8.762;2023-06-19T03:22:49;13.63;;;8.00;;
23702;SDS011;12030;50.376;8.762;2023-06-19T03:25:15;19.60;;;7.90;;
23702;SDS011;12030;50.376;8.762;2023-06-19T03:27:40;19.33;;;8.70;;
23702;SDS011;12030;50.376;8.762;2023-06-19T03:30:07;21.37;;;8.90;;
23702;SDS011;12030;50.376;8.762;2023-06-19T03:32:33;19.20;;;8.40;;
23702;SDS011;12030;50.376;8.762;2023-06-19T03:34:59;15.05;;;8.43;;
23702;SDS011;12030;50.376;8.762;2023-06-19T03:37:26;18.17;;;8.98;;
23702;SDS011;12030;50.376;8.762;2023-06-19T03:39:52;18.17;;;8.53;;
23702;SDS011;12030;50.376;8.762;2023-06-19T03:42:17;23.10;;;8.90;;
23702;SDS011;12030;50.376;8.762;2023-06-19T03:44:43;13.43;;;8.05;;
23702;SDS011;12030;50.376;8.762;2023-06-19T03:47:08;10.50;;;8.27;;
23702;SDS011;12030;50.376;8.762;2023-06-19T03:49:34;9.13;;;7.85;;
23702;SDS011;12030;50.376;8.762;2023-06-19T03:52:00;9.87;;;7.47;;
23702;SDS011;12030;50.376;8.762;2023-06-19T03:54:26;9.38;;;7.85;;
23702;SDS011;12030;50.376;8.762;2023-06-19T03:56:52;10.67;;;7.40;;
23702;SDS011;12030;50.376;8.762;2023-06-19T03:59:17;15.97;;;8.30;;
23702;SDS011;12030;50.376;8.762;2023-06-19T04:01:43;18.87;;;8.60;;
23702;SDS011;12030;50.376;8.762;2023-06-19T04:04:08;19.77;;;8.23;;
23702;SDS011;12030;50.376;8.762;2023-06-19T04:06:34;14.55;;;8.00;;
23702;SDS011;12030;50.376;8.762;2023-06-19T04:08:59;12.18;;;7.70;;
23702;SDS011;12030;50.376;8.762;2023-06-19T04:11:25;8.43;;;7.57;;
23702;SDS011;12030;50.376;8.762;2023-06-19T04:13:50;10.30;;;7.43;;
23702;SDS011;12030;50.376;8.762;2023-06-19T04:16:16;8.40;;;7.57;;
23702;SDS011;12030;50.376;8.762;2023-06-19T04:18:42;10.50;;;7.50;;
23702;SDS011;12030;50.376;8.762;2023-06-19T04:21:07;12.20;;;7.40;;
23702;SDS011;12030;50.376;8.762;2023-06-19T04:23:33;13.00;;;7.70;;
23702;SDS011;12030;50.376;8.762;2023-06-19T04:25:58;12.07;;;7.77;;
23702;SDS011;12030;50.376;8.762;2023-06-19T04:28:24;10.73;;;7.30;;
23702;SDS011;12030;50.376;8.762;2023-06-19T04:30:51;10.73;;;8.13;;
23702;SDS011;12030;50.376;8.762;2023-06-19T04:33:24;9.68;;;7.47;;
23702;SDS011;12030;50.376;8.762;2023-06-19T04:35:54;10.30;;;7.60;;
23702;SDS011;12030;50.376;8.762;2023-06-19T04:38:20;12.65;;;7.53;;
23702;SDS011;12030;50.376;8.762;2023-06-19T04:40:48;12.20;;;8.88;;
23702;SDS011;12030;50.376;8.762;2023-06-19T04:43:15;16.13;;;8.18;;
23702;SDS011;12030;50.376;8.762;2023-06-19T04:45:40;13.17;;;8.77;;
23702;SDS011;12030;50.376;8.762;2023-06-19T04:48:06;11.27;;;8.33;;
23702;SDS011;12030;50.376;8.762;2023-06-19T04:50:31;11.23;;;7.63;;
23702;SDS011;12030;50.376;8.762;2023-06-19T04:52:57;12.57;;;8.27;;
23702;SDS011;12030;50.376;8.762;2023-06-19T04:55:22;13.07;;;8.23;;
23702;SDS011;12030;50.376;8.762;2023-06-19T04:57:50;12.50;;;8.23;;
23702;SDS011;12030;50.376;8.762;2023-06-19T05:00:16;10.98;;;7.82;;
23702;SDS011;12030;50.376;8.762;2023-06-19T05:02:44;11.50;;;8.07;;
23702;SDS011;12030;50.376;8.762;2023-06-19T05:05:12;10.32;;;7.55;;
23702;SDS011;12030;50.376;8.762;2023-06-19T05:07:38;12.40;;;8.20;;
23702;SDS011;12030;50.376;8.762;2023-06-19T05:10:03;13.40;;;8.03;;
23702;SDS011;12030;50.376;8.762;2023-06-19T05:12:29;10.60;;;8.45;;
23702;SDS011;12030;50.376;8.762;2023-06-19T05:14:55;12.98;;;8.80;;
23702;SDS011;12030;50.376;8.762;2023-06-19T05:17:20;13.10;;;8.80;;
23702;SDS011;12030;50.376;8.762;2023-06-19T05:19:46;12.10;;;8.77;;
23702;SDS011;12030;50.376;8.762;2023-06-19T05:22:11;10.88;;;8.10;;
23702;SDS011;12030;50.376;8.762;2023-06-19T05:24:37;14.35;;;8.65;;
23702;SDS011;12030;50.376;8.762;2023-06-19T05:27:02;15.10;;;8.70;;
23702;SDS011;12030;50.376;8.762;2023-06-19T05:29:28;9.43;;;8.20;;
23702;SDS011;12030;50.376;8.762;2023-06-19T05:31:55;9.27;;;8.20;;
23702;SDS011;12030;50.376;8.762;2023-06-19T05:34:21;10.27;;;8.20;;
23702;SDS011;12030;50.376;8.762;2023-06-19T05:36:47;9.68;;;8.02;;
23702;SDS011;12030;50.376;8.762;2023-06-19T05:39:13;8.68;;;7.78;;
23702;SDS011;12030;50.376;8.762;2023-06-19T05:41:38;9.70;;;7.50;;
23702;SDS011;12030;50.376;8.762;2023-06-19T05:44:04;7.83;;;7.13;;
23702;SDS011;12030;50.376;8.762;2023-06-19T05:46:30;7.93;;;7.00;;
23702;SDS011;12030;50.376;8.762;2023-06-19T05:48:55;9.30;;;7.13;;
23702;SDS011;12030;50.376;8.762;2023-06-19T05:51:21;8.37;;;7.43;;
23702;SDS011;12030;50.376;8.762;2023-06-19T05:53:46;9.53;;;7.13;;
23702;SDS011;12030;50.376;8.762;2023-06-19T05:56:14;10.87;;;7.43;;
23702;SDS011;12030;50.376;8.762;2023-06-19T05:58:40;9.77;;;7.68;;
23702;SDS011;12030;50.376;8.762;2023-06-19T06:01:06;8.73;;;6.37;;
23702;SDS011;12030;50.376;8.762;2023-06-19T06:03:31;6.93;;;6.25;;
23702;SDS011;12030;50.376;8.762;2023-06-19T06:05:57;9.73;;;6.60;;
23702;SDS011;12030;50.376;8.762;2023-06-19T06:08:28;9.35;;;6.05;;
23702;SDS011;12030;50.376;8.762;2023-06-19T06:10:54;6.88;;;5.93;;
23702;SDS011;12030;50.376;8.762;2023-06-19T06:13:20;6.70;;;5.80;;
23702;SDS011;12030;50.376;8.762;2023-06-19T06:15:45;7.87;;;6.77;;
23702;SDS011;12030;50.376;8.762;2023-06-19T06:18:11;6.87;;;5.50;;
23702;SDS011;12030;50.376;8.762;2023-06-19T06:20:37;6.60;;;5.43;;
23702;SDS011;12030;50.376;8.762;2023-06-19T06:23:02;6.00;;;5.37;;
23702;SDS011;12030;50.376;8.762;2023-06-19T06:25:28;6.65;;;5.97;;
23702;SDS011;12030;50.376;8.762;2023-06-19T06:27:54;7.30;;;5.47;;
23702;SDS011;12030;50.376;8.762;2023-06-19T06:30:19;7.07;;;5.37;;
23702;SDS011;12030;50.376;8.762;2023-06-19T06:32:45;6.13;;;5.53;;
23702;SDS011;12030;50.376;8.762;2023-06-19T06:35:10;6.33;;;5.70;;
23702;SDS011;12030;50.376;8.762;2023-06-19T06:37:36;5.30;;;4.80;;
23702;SDS011;12030;50.376;8.762;2023-06-19T06:40:01;5.93;;;5.40;;
23702;SDS011;12030;50.376;8.762;2023-06-19T06:42:30;6.32;;;4.90;;
23702;SDS011;12030;50.376;8.762;2023-06-19T06:44:55;5.90;;;5.27;;
23702;SDS011;12030;50.376;8.762;2023-06-19T06:47:21;6.50;;;5.40;;
23702;SDS011;12030;50.376;8.762;2023-06-19T06:49:46;5.20;;;4.70;;
23702;SDS011;12030;50.376;8.762;2023-06-19T06:52:12;5.43;;;4.65;;
23702;SDS011;12030;50.376;8.762;2023-06-19T06:54:38;5.70;;;4.50;;
23702;SDS011;12030;50.376;8.762;2023-06-19T06:57:03;4.80;;;4.40;;
23702;SDS011;12030;50.376;8.762;2023-06-19T06:59:30;5.88;;;4.00;;
23702;SDS011;12030;50.376;8.762;2023-06-19T07:01:55;5.83;;;4.33;;
23702;SDS011;12030;50.376;8.762;2023-06-19T07:04:21;5.10;;;3.90;;
23702;SDS011;12030;50.376;8.762;2023-06-19T07:06:47;4.53;;;3.90;;
23702;SDS011;12030;50.376;8.762;2023-06-19T07:09:13;6.80;;;4.18;;
23702;SDS011;12030;50.376;8.762;2023-06-19T07:11:40;4.22;;;3.83;;
23702;SDS011;12030;50.376;8.762;2023-06-19T07:14:05;5.73;;;3.77;;
23702;SDS011;12030;50.376;8.762;2023-06-19T07:16:31;4.30;;;3.90;;
23702;SDS011;12030;50.376;8.762;2023-06-19T07:18:56;3.80;;;3.40;;
23702;SDS011;12030;50.376;8.762;2023-06-19T07:21:22;4.30;;;3.20;;
23702;SDS011;12030;50.376;8.762;2023-06-19T07:23:47;5.45;;;3.47;;
23702;SDS011;12030;50.376;8.762;2023-06-19T07:26:13;4.07;;;2.58;;
23702;SDS011;12030;50.376;8.762;2023-06-19T07:28:39;2.70;;;2.50;;
23702;SDS011;12030;50.376;8.762;2023-06-19T07:31:05;2.60;;;2.40;;
23702;SDS011;12030;50.376;8.762;2023-06-19T07:33:30;2.65;;;2.45;;
23702;SDS011;12030;50.376;8.762;2023-06-19T07:35:56;2.92;;;2.25;;
23702;SDS011;12030;50.376;8.762;2023-06-19T07:38:22;2.97;;;2.40;;
23702;SDS011;12030;50.376;8.762;2023-06-19T07:40:48;2.40;;;2.20;;
23702;SDS011;12030;50.376;8.762;2023-06-19T07:43:14;3.20;;;2.10;;
23702;SDS011;12030;50.376;8.762;2023-06-19T07:45:39;2.80;;;2.50;;
23702;SDS011;12030;50.376;8.762;2023-06-19T07:48:05;2.60;;;2.40;;
23702;SDS011;12030;50.376;8.762;2023-06-19T07:50:31;2.60;;;2.40;;
23702;SDS011;12030;50.376;8.762;2023-06-19T07:52:57;2.70;;;2.50;;
23702;SDS011;12030;50.376;8.762;2023-06-19T07:55:23;2.47;;;2.28;;
23702;SDS011;12030;50.376;8.762;2023-06-19T07:57:48;2.60;;;2.40;;
23702;SDS011;12030;50.376;8.762;2023-06-19T08:00:14;2.60;;;2.40;;
23702;SDS011;12030;50.376;8.762;2023-06-19T08:02:40;2.80;;;2.60;;
23702;SDS011;12030;50.376;8.762;2023-06-19T08:05:09;2.40;;;2.20;;
23702;SDS011;12030;50.376;8.762;2023-06-19T08:07:35;2.60;;;2.40;;
23702;SDS011;12030;50.376;8.762;2023-06-19T08:10:02;2.50;;;2.30;;
23702;SDS011;12030;50.376;8.762;2023-06-19T08:12:31;3.28;;;2.47;;
23702;SDS011;12030;50.376;8.762;2023-06-19T08:14:56;3.05;;;2.53;;
23702;SDS011;12030;50.376;8.762;2023-06-19T08:17:21;3.20;;;2.67;;
23702;SDS011;12030;50.376;8.762;2023-06-19T08:19:47;2.60;;;2.40;;
23702;SDS011;12030;50.376;8.762;2023-06-19T08:22:13;4.10;;;2.70;;
23702;SDS011;12030;50.376;8.762;2023-06-19T08:24:38;3.40;;;2.60;;
23702;SDS011;12030;50.376;8.762;2023-06-19T08:27:05;2.83;;;2.60;;
23702;SDS011;12030;50.376;8.762;2023-06-19T08:29:31;3.58;;;3.15;;
23702;SDS011;12030;50.376;8.762;2023-06-19T08:31:57;5.13;;;3.10;;
23702;SDS011;12030;50.376;8.762;2023-06-19T08:34:22;3.23;;;2.93;;
23702;SDS011;12030;50.376;8.762;2023-06-19T08:36:48;4.65;;;3.20;;
23702;SDS011;12030;50.376;8.762;2023-06-19T08:39:14;3.70;;;2.60;;
23702;SDS011;12030;50.376;8.762;2023-06-19T08:41:40;3.30;;;2.80;;
23702;SDS011;12030;50.376;8.762;2023-06-19T08:44:06;3.17;;;2.88;;
23702;SDS011;12030;50.376;8.762;2023-06-19T08:46:32;4.63;;;3.17;;
23702;SDS011;12030;50.376;8.762;2023-06-19T08:48:59;3.27;;;2.97;;
23702;SDS011;12030;50.376;8.762;2023-06-19T08:51:26;3.05;;;2.85;;
23702;SDS011;12030;50.376;8.762;2023-06-19T08:53:59;3.90;;;2.97;;
23702;SDS011;12030;50.376;8.762;2023-06-19T08:56:26;5.40;;;3.22;;
23702;SDS011;12030;50.376;8.762;2023-06-19T08:58:52;3.40;;;3.10;;
23702;SDS011;12030;50.376;8.762;2023-06-19T09:01:18;3.75;;;2.88;;
23702;SDS011;12030;50.376;8.762;2023-06-19T09:03:44;3.35;;;3.05;;
23702;SDS011;12030;50.376;8.762;2023-06-19T09:06:13;3.30;;;3.00;;
23702;SDS011;12030;50.376;8.762;2023-06-19T09:08:40;3.50;;;3.00;;
23702;SDS011;12030;50.376;8.762;2023-06-19T09:11:06;4.90;;;3.43;;
23702;SDS011;12030;50.376;8.762;2023-06-19T09:13:32;4.03;;;3.30;;
23702;SDS011;12030;50.376;8.762;2023-06-19T09:15:58;3.83;;;3.20;;
23702;SDS011;12030;50.376;8.762;2023-06-19T09:18:25;3.83;;;3.10;;
23702;SDS011;12030;50.376;8.762;2023-06-19T09:20:54;3.60;;;3.20;;
23702;SDS011;12030;50.376;8.762;2023-06-19T09:23:19;4.00;;;3.25;;
23702;SDS011;12030;50.376;8.762;2023-06-19T09:25:46;4.80;;;3.42;;
23702;SDS011;12030;50.376;8.762;2023-06-19T09:28:26;3.42;;;3.10;;
23702;SDS011;12030;50.376;8.762;2023-06-19T09:30:56;3.53;;;3.17;;
23702;SDS011;12030;50.376;8.762;2023-06-19T09:33:27;3.70;;;3.30;;
23702;SDS011;12030;50.376;8.762;2023-06-19T09:35:58;5.07;;;3.30;;
23702;SDS011;12030;50.376;8.762;2023-06-19T09:38:28;3.38;;;3.08;;
23702;SDS011;12030;50.376;8.762;2023-06-19T09:40:56;3.63;;;3.20;;
23702;SDS011;12030;50.376;8.762;2023-06-19T09:43:24;3.13;;;2.92;;
23702;SDS011;12030;50.376;8.762;2023-06-19T09:45:55;3.90;;;3.50;;
23702;SDS011;12030;50.376;8.762;2023-06-19T09:48:22;4.22;;;3.30;;
23702;SDS011;12030;50.376;8.762;2023-06-19T09:50:56;3.80;;;3.40;;
23702;SDS011;12030;50.376;8.762;2023-06-19T09:53:26;4.45;;;3.15;;
23702;SDS011;12030;50.376;8.762;2023-06-19T09:55:52;4.82;;;3.40;;
23702;SDS011;12030;50.376;8.762;2023-06-19T09:58:21;5.50;;;3.23;;
23702;SDS011;12030;50.376;8.762;2023-06-19T10:00:47;5.47;;;3.30;;
23702;SDS011;12030;50.376;8.762;2023-06-19T10:03:15;4.30;;;3.40;;
23702;SDS011;12030;50.376;8.762;2023-06-19T10:05:41;3.70;;;3.40;;
23702;SDS011;12030;50.376;8.762;2023-06-19T10:08:07;4.15;;;3.17;;
23702;SDS011;12030;50.376;8.762;2023-06-19T10:10:34;3.53;;;3.22;;
23702;SDS011;12030;50.376;8.762;2023-06-19T10:13:10;3.40;;;3.10;;
23702;SDS011;12030;50.376;8.762;2023-06-19T10:15:40;4.00;;;3.60;;
23702;SDS011;12030;50.376;8.762;2023-06-19T10:18:09;4.13;;;3.17;;
23702;SDS011;12030;50.376;8.762;2023-06-19T10:20:41;4.97;;;3.60;;
23702;SDS011;12030;50.376;8.762;2023-06-19T10:23:12;3.80;;;3.40;;
23702;SDS011;12030;50.376;8.762;2023-06-19T10:25:47;4.28;;;3.60;;
23702;SDS011;12030;50.376;8.762;2023-06-19T10:30:55;5.27;;;3.70;;
23702;SDS011;12030;50.376;8.762;2023-06-19T10:33:22;9.52;;;3.70;;
23702;SDS011;12030;50.376;8.762;2023-06-19T10:35:49;5.30;;;3.70;;
23702;SDS011;12030;50.376;8.762;2023-06-19T10:38:15;4.23;;;3.40;;
23702;SDS011;12030;50.376;8.762;2023-06-19T10:40:40;5.00;;;3.50;;
23702;SDS011;12030;50.376;8.762;2023-06-19T10:43:06;5.95;;;3.42;;
23702;SDS011;12030;50.376;8.762;2023-06-19T10:45:32;4.20;;;3.70;;
23702;SDS011;12030;50.376;8.762;2023-06-19T10:47:57;4.55;;;3.50;;
23702;SDS011;12030;50.376;8.762;2023-06-19T10:50:30;3.85;;;3.50;;
23702;SDS011;12030;50.376;8.762;2023-06-19T10:53:00;4.50;;;3.60;;
23702;SDS011;12030;50.376;8.762;2023-06-19T10:55:26;4.93;;;3.63;;
23702;SDS011;12030;50.376;8.762;2023-06-19T10:57:51;4.03;;;3.55;;
23702;SDS011;12030;50.376;8.762;2023-06-19T11:00:24;4.32;;;3.40;;
23702;SDS011;12030;50.376;8.762;2023-06-19T11:02:51;3.92;;;3.45;;
23702;SDS011;12030;50.376;8.762;2023-06-19T11:05:18;6.05;;;3.90;;
23702;SDS011;12030;50.376;8.762;2023-06-19T11:07:50;5.97;;;3.85;;
23702;SDS011;12030;50.376;8.762;2023-06-19T11:10:23;4.65;;;3.85;;
23702;SDS011;12030;50.376;8.762;2023-06-19T11:12:52;4.85;;;3.58;;
23702;SDS011;12030;50.376;8.762;2023-06-19T11:15:32;6.37;;;3.60;;
23702;SDS011;12030;50.376;8.762;2023-06-19T11:17:59;3.88;;;3.33;;
23702;SDS011;12030;50.376;8.762;2023-06-19T11:20:26;4.53;;;3.55;;
23702;SDS011;12030;50.376;8.762;2023-06-19T11:22:55;3.90;;;3.58;;
23702;SDS011;12030;50.376;8.762;2023-06-19T11:25:38;3.90;;;3.60;;
23702;SDS011;12030;50.376;8.762;2023-06-19T11:28:15;4.85;;;3.75;;
23702;SDS011;12030;50.376;8.762;2023-06-19T11:30:42;4.10;;;3.50;;
23702;SDS011;12030;50.376;8.762;2023-06-19T11:33:15;4.05;;;3.22;;
23702;SDS011;12030;50.376;8.762;2023-06-19T11:35:51;3.88;;;3.30;;
23702;SDS011;12030;50.376;8.762;2023-06-19T11:38:21;5.35;;;3.38;;
23702;SDS011;12030;50.376;8.762;2023-06-19T11:40:48;3.70;;;3.40;;
23702;SDS011;12030;50.376;8.762;2023-06-19T11:43:30;4.40;;;3.42;;
23702;SDS011;12030;50.376;8.762;2023-06-19T11:46:02;4.70;;;3.90;;
23702;SDS011;12030;50.376;8.762;2023-06-19T11:48:29;4.28;;;3.55;;
23702;SDS011;12030;50.376;8.762;2023-06-19T11:50:55;3.78;;;3.40;;
23702;SDS011;12030;50.376;8.762;2023-06-19T11:53:21;4.50;;;3.57;;
23702;SDS011;12030;50.376;8.762;2023-06-19T11:55:49;6.70;;;3.50;;
23702;SDS011;12030;50.376;8.762;2023-06-19T11:58:15;4.45;;;3.30;;
23702;SDS011;12030;50.376;8.762;2023-06-19T12:00:41;3.90;;;3.10;;
23702;SDS011;12030;50.376;8.762;2023-06-19T12:03:07;6.28;;;3.30;;
23702;SDS011;12030;50.376;8.762;2023-06-19T12:05:33;3.97;;;2.95;;
23702;SDS011;12030;50.376;8.762;2023-06-19T12:07:58;3.27;;;2.80;;
23702;SDS011;12030;50.376;8.762;2023-06-19T12:10:27;5.85;;;2.90;;
23702;SDS011;12030;50.376;8.762;2023-06-19T12:12:53;5.65;;;3.20;;
23702;SDS011;12030;50.376;8.762;2023-06-19T12:15:18;3.58;;;2.85;;
23702;SDS011;12030;50.376;8.762;2023-06-19T12:17:45;4.82;;;3.10;;
23702;SDS011;12030;50.376;8.762;2023-06-19T12:20:11;3.17;;;2.88;;
23702;SDS011;12030;50.376;8.762;2023-06-19T12:22:38;4.80;;;3.07;;
23702;SDS011;12030;50.376;8.762;2023-06-19T12:25:04;3.55;;;3.00;;
23702;SDS011;12030;50.376;8.762;2023-06-19T12:27:30;2.95;;;2.65;;
23702;SDS011;12030;50.376;8.762;2023-06-19T12:29:56;4.20;;;3.10;;
23702;SDS011;12030;50.376;8.762;2023-06-19T12:32:21;3.45;;;2.88;;
23702;SDS011;12030;50.376;8.762;2023-06-19T12:34:47;4.72;;;2.80;;
23702;SDS011;12030;50.376;8.762;2023-06-19T12:37:16;2.80;;;2.60;;
23702;SDS011;12030;50.376;8.762;2023-06-19T12:39:45;2.80;;;2.60;;
23702;SDS011;12030;50.376;8.762;2023-06-19T12:42:11;4.23;;;3.10;;
23702;SDS011;12030;50.376;8.762;2023-06-19T12:44:38;3.05;;;2.83;;
23702;SDS011;12030;50.376;8.762;2023-06-19T12:47:07;3.35;;;3.00;;
23702;SDS011;12030;50.376;8.762;2023-06-19T12:49:33;4.53;;;3.08;;
23702;SDS011;12030;50.376;8.762;2023-06-19T12:51:59;3.90;;;2.90;;
23702;SDS011;12030;50.376;8.762;2023-06-19T12:54:25;3.90;;;3.00;;
23702;SDS011;12030;50.376;8.762;2023-06-19T12:56:51;4.18;;;2.92;;
23702;SDS011;12030;50.376;8.762;2023-06-19T12:59:17;4.90;;;3.10;;
23702;SDS011;12030;50.376;8.762;2023-06-19T13:01:43;5.40;;;3.00;;
23702;SDS011;12030;50.376;8.762;2023-06-19T13:04:09;3.20;;;2.83;;
23702;SDS011;12030;50.376;8.762;2023-06-19T13:06:36;3.60;;;3.00;;
23702;SDS011;12030;50.376;8.762;2023-06-19T13:09:01;4.67;;;2.90;;
23702;SDS011;12030;50.376;8.762;2023-06-19T13:11:29;2.97;;;2.70;;
23702;SDS011;12030;50.376;8.762;2023-06-19T13:13:55;4.32;;;3.00;;
23702;SDS011;12030;50.376;8.762;2023-06-19T13:16:21;3.22;;;2.80;;
23702;SDS011;12030;50.376;8.762;2023-06-19T13:18:46;3.25;;;2.88;;
23702;SDS011;12030;50.376;8.762;2023-06-19T13:21:12;3.73;;;2.90;;
23702;SDS011;12030;50.376;8.762;2023-06-19T13:23:37;4.00;;;2.67;;
23702;SDS011;12030;50.376;8.762;2023-06-19T13:26:05;3.20;;;2.90;;
23702;SDS011;12030;50.376;8.762;2023-06-19T13:28:31;3.13;;;2.60;;
23702;SDS011;12030;50.376;8.762;2023-06-19T13:30:56;3.97;;;2.75;;
23702;SDS011;12030;50.376;8.762;2023-06-19T13:33:22;2.75;;;2.55;;
23702;SDS011;12030;50.376;8.762;2023-06-19T13:35:47;3.10;;;2.77;;
23702;SDS011;12030;50.376;8.762;2023-06-19T13:38:13;2.90;;;2.63;;
23702;SDS011;12030;50.376;8.762;2023-06-19T13:40:40;2.92;;;2.72;;
23702;SDS011;12030;50.376;8.762;2023-06-19T13:43:06;3.25;;;2.95;;
23702;SDS011;12030;50.376;8.762;2023-06-19T13:45:32;3.85;;;2.78;;
23702;SDS011;12030;50.376;8.762;2023-06-19T13:47:59;3.30;;;3.00;;
23702;SDS011;12030;50.376;8.762;2023-06-19T13:50:25;3.15;;;2.85;;
23702;SDS011;12030;50.376;8.762;2023-06-19T13:52:51;3.15;;;2.70;;
23702;SDS011;12030;50.376;8.762;2023-06-19T13:55:16;3.10;;;2.57;;
23702;SDS011;12030;50.376;8.762;2023-06-19T13:57:43;4.03;;;2.20;;
23702;SDS011;12030;50.376;8.762;2023-06-19T14:00:09;2.97;;;2.70;;
23702;SDS011;12030;50.376;8.762;2023-06-19T14:02:36;2.95;;;2.60;;
23702;SDS011;12030;50.376;8.762;2023-06-19T14:05:04;3.27;;;2.80;;
23702;SDS011;12030;50.376;8.762;2023-06-19T14:07:31;4.57;;;2.67;;
23702;SDS011;12030;50.376;8.762;2023-06-19T14:09:56;3.00;;;2.63;;
23702;SDS011;12030;50.376;8.762;2023-06-19T14:12:22;5.60;;;2.60;;
23702;SDS011;12030;50.376;8.762;2023-06-19T14:14:47;3.03;;;2.70;;
23702;SDS011;12030;50.376;8.762;2023-06-19T14:17:13;3.67;;;2.67;;
23702;SDS011;12030;50.376;8.762;2023-06-19T14:19:39;2.78;;;2.42;;
23702;SDS011;12030;50.376;8.762;2023-06-19T14:22:04;3.63;;;2.70;;
23702;SDS011;12030;50.376;8.762;2023-06-19T14:24:30;3.45;;;2.72;;
23702;SDS011;12030;50.376;8.762;2023-06-19T14:26:55;4.30;;;2.63;;
23702;SDS011;12030;50.376;8.762;2023-06-19T14:29:21;3.80;;;2.90;;
23702;SDS011;12030;50.376;8.762;2023-06-19T14:31:46;2.73;;;2.30;;
23702;SDS011;12030;50.376;8.762;2023-06-19T14:34:12;3.75;;;2.60;;
23702;SDS011;12030;50.376;8.762;2023-06-19T14:36:38;4.32;;;2.72;;
23702;SDS011;12030;50.376;8.762;2023-06-19T14:39:04;3.92;;;2.90;;
23702;SDS011;12030;50.376;8.762;2023-06-19T14:41:29;3.53;;;2.80;;
23702;SDS011;12030;50.376;8.762;2023-06-19T14:43:55;4.50;;;2.65;;
23702;SDS011;12030;50.376;8.762;2023-06-19T14:46:21;3.83;;;2.60;;